Flight Track Log - Related Links

Times and Time Zones

All times are in EDT time to prevent confusion due to time zone crossing. See the CSN6087 flight status page for this flight to view local times or setup timezone preferences in your user account.


Time Position Orientation Groundspeed Altitude Reporting Facility
EDT Latitude Longitude Course Direction KTS MPH feet Rate Location/Type
Thu 03:38:00 AM 44.4598 129.5371 199° South  Level Estimated
Thu 03:39:00 AM 44.3955 129.5053 199° South  Level Estimated
Thu 03:40:00 AM 44.3312 129.4736 199° South  Level Estimated
Thu 03:41:00 AM 44.2669 129.4419 199° South  Level Estimated
Thu 03:41:30 AM 43.6980 127.4680 199° South 368 423 34,100  Level FlightAware ADS-B
Thu 03:42:00 AM 44.2026 129.4103 199° South  Level Estimated
Thu 03:42:09 AM 43.6710 127.4000 241° Southwest 368 423 34,100  Level FlightAware ADS-B
Thu 03:42:45 AM 43.6450 127.3370 240° Southwest 368 423 34,100  Level FlightAware ADS-B
Thu 03:43:20 AM 43.6210 127.2760 241° Southwest 368 423 34,100  Level FlightAware ADS-B
Thu 03:43:57 AM 43.5950 127.2110 241° Southwest 368 423 34,100  Level FlightAware ADS-B
Thu 03:44:33 AM 43.5690 127.1480 240° Southwest 368 423 34,100  Level FlightAware ADS-B
Thu 03:45:09 AM 43.5440 127.0850 241° Southwest 368 423 34,100  Level FlightAware ADS-B
Thu 03:45:45 AM 43.5190 127.0230 241° Southwest 368 423 34,100  Level FlightAware ADS-B
Thu 03:46:22 AM 43.4930 126.9580 241° Southwest 368 423 34,100  Level FlightAware ADS-B
Thu 03:46:58 AM 43.4680 126.8950 241° Southwest 368 423 34,100  Level FlightAware ADS-B
Thu 03:47:34 AM 43.4420 126.8320 240° Southwest 368 423 34,100  Level FlightAware ADS-B
Thu 03:48:11 AM 43.4160 126.7680 241° Southwest 368 423 34,100  Level FlightAware ADS-B
Thu 03:48:47 AM 43.3910 126.7050 241° Southwest 368 423 34,100  Level FlightAware ADS-B
Thu 03:49:23 AM 43.3660 126.6430 241° Southwest 368 423 34,100  Level FlightAware ADS-B
Thu 03:50:00 AM 43.3400 126.5780 241° Southwest 368 423 34,100  Level FlightAware ADS-B
Thu 03:50:36 AM 43.3150 126.5160 241° Southwest 368 423 34,100  Level FlightAware ADS-B
Thu 03:51:12 AM 43.2890 126.4530 240° Southwest 368 423 34,100  Level FlightAware ADS-B
Thu 03:53:00 AM 43.1663 126.4529 180° South  Level Estimated
Thu 03:54:00 AM 43.0981 126.4529 180° South  Level Estimated
Thu 03:55:00 AM 43.0299 126.4529 180° South  Level Estimated
Thu 03:56:00 AM 42.9617 126.4529 180° South  Level Estimated
Thu 03:57:00 AM 42.8936 126.4528 180° South  Level Estimated
Thu 03:58:00 AM 42.8254 126.4528 180° South  Level Estimated
Thu 03:59:00 AM 42.7572 126.4528 180° South  Level Estimated
Thu 04:00:00 AM 42.6890 126.4527 180° South  Level Estimated
Thu 04:01:00 AM 42.6208 126.4527 180° South  Level Estimated
Thu 04:02:00 AM 42.5527 126.4527 180° South  Level Estimated
Thu 04:03:00 AM 42.4845 126.4526 180° South  Level Estimated
Thu 04:04:00 AM 42.4163 126.4526 180° South  Level Estimated
Thu 04:05:00 AM 42.3481 126.4526 180° South  Level Estimated
Thu 04:06:00 AM 42.2799 126.4526 180° South  Level Estimated
Thu 04:07:00 AM 42.2118 126.4525 180° South  Level Estimated
Thu 04:08:00 AM 42.1436 126.4525 180° South  Level Estimated
Thu 04:09:00 AM 42.0754 126.4525 180° South  Level Estimated
Thu 04:10:00 AM 42.0072 126.4524 180° South  Level Estimated
Thu 04:11:00 AM 41.9390 126.4524 180° South  Level Estimated
Thu 04:12:00 AM 41.8709 126.4524 180° South  Level Estimated
Thu 04:13:00 AM 41.8027 126.4523 180° South  Level Estimated
Thu 04:14:00 AM 41.7345 126.4523 180° South  Level Estimated
Thu 04:15:00 AM 41.6663 126.4523 180° South  Level Estimated
Thu 04:16:00 AM 41.5981 126.4522 180° South  Level Estimated
Thu 04:17:00 AM 41.5300 126.4522 180° South  Level Estimated
Thu 04:18:00 AM 41.4618 126.4522 180° South  Level Estimated
Thu 04:19:00 AM 41.3936 126.4522 180° South  Level Estimated
Thu 04:20:00 AM 41.3254 126.4521 180° South  Level Estimated
Thu 04:21:00 AM 41.2572 126.4521 180° South  Level Estimated
Thu 04:22:00 AM 41.1891 126.4521 180° South  Level Estimated
Thu 04:23:00 AM 41.1209 126.4520 180° South  Level Estimated
Thu 04:24:00 AM 41.0527 126.4520 180° South  Level Estimated
Thu 04:25:00 AM 40.9845 126.4520 180° South  Level Estimated
Thu 04:26:00 AM 40.9163 126.4520 180° South  Level Estimated
Thu 04:27:00 AM 40.8482 126.4519 180° South  Level Estimated
Thu 04:28:00 AM 40.7800 126.4519 180° South  Level Estimated
Thu 04:29:00 AM 40.7118 126.4519 180° South  Level Estimated
Thu 04:30:00 AM 40.6436 126.4518 180° South  Level Estimated
Thu 04:31:00 AM 40.5754 126.4518 180° South  Level Estimated
Thu 04:32:00 AM 40.5073 126.4518 180° South  Level Estimated
Thu 04:33:00 AM 40.4391 126.4517 180° South  Level Estimated
Thu 04:34:00 AM 40.3709 126.4517 180° South  Level Estimated
Thu 04:35:00 AM 40.3027 126.4517 180° South  Level Estimated
Thu 04:36:00 AM 40.2345 126.4517 180° South  Level Estimated
Thu 04:37:00 AM 40.1664 126.4516 180° South  Level Estimated
Thu 04:38:00 AM 40.0982 126.4516 180° South  Level Estimated
Thu 04:39:00 AM 40.0300 126.4516 180° South  Level Estimated
Thu 04:40:00 AM 39.9618 126.4515 180° South  Level Estimated
Thu 04:41:00 AM 39.8936 126.4515 180° South  Level Estimated
Thu 04:42:00 AM 39.8255 126.4515 180° South  Level Estimated
Thu 04:43:00 AM 39.7573 126.4514 180° South  Level Estimated
Thu 04:44:00 AM 39.6891 126.4514 180° South  Level Estimated
Thu 04:45:00 AM 39.6209 126.4514 180° South  Level Estimated
Thu 04:46:00 AM 39.5527 126.4513 180° South  Level Estimated
Thu 04:47:00 AM 39.4846 126.4513 180° South  Level Estimated
Thu 04:48:00 AM 39.4164 126.4513 180° South  Level Estimated
Thu 04:49:00 AM 39.3482 126.4513 180° South  Level Estimated
Thu 04:50:00 AM 39.2800 126.4512 180° South  Level Estimated
Thu 04:51:00 AM 39.2118 126.4512 180° South  Level Estimated
Thu 04:52:00 AM 39.1437 126.4512 180° South  Level Estimated
Thu 04:53:00 AM 39.0755 126.4511 180° South  Level Estimated
Thu 04:54:00 AM 39.0073 126.4511 180° South  Level Estimated
Thu 04:55:00 AM 38.9391 126.4511 180° South  Level Estimated
Thu 04:56:00 AM 38.8709 126.4510 180° South  Level Estimated
Thu 04:57:00 AM 38.8028 126.4510 180° South  Level Estimated
Thu 04:58:00 AM 38.7346 126.4510 180° South  Level Estimated
Thu 04:59:00 AM 38.6664 126.4510 180° South  Level Estimated
Thu 05:00:00 AM 38.5982 126.4509 180° South  Level Estimated
Thu 05:01:00 AM 38.5300 126.4509 180° South  Level Estimated
Thu 05:02:00 AM 38.4619 126.4509 180° South  Level Estimated
Thu 05:03:00 AM 38.3937 126.4509 180° South  Level Estimated
Thu 05:04:00 AM 38.3255 126.4508 180° South  Level Estimated
Thu 05:05:00 AM 38.2573 126.4508 180° South  Level Estimated
Thu 05:06:00 AM 38.1891 126.4508 180° South  Level Estimated
Thu 05:07:00 AM 38.1210 126.4508 180° South  Level Estimated
Thu 05:08:00 AM 38.0528 126.4507 180° South  Level Estimated
Thu 05:09:00 AM 37.9846 126.4507 180° South  Level Estimated
Thu 05:10:00 AM 37.9164 126.4507 180° South  Level Estimated
Thu 05:11:00 AM 37.8482 126.4507 180° South  Level Estimated
Thu 05:12:00 AM 37.7801 126.4506 180° South  Level Estimated
Thu 05:13:00 AM 37.7119 126.4506 180° South  Level Estimated
Thu 05:14:00 AM 37.6437 126.4506 180° South  Level Estimated
Thu 05:15:00 AM 37.5755 126.4506 180° South  Level Estimated
Thu 05:16:00 AM 37.5073 126.4505 180° South  Level Estimated
Thu 05:17:00 AM 37.4691 126.4505 180° South  Level Estimated
Thu 05:18:00 AM 37.4691 126.4505 335° Northwest  Level Estimated
Thu 05:19:00 AM 37.4691 126.4505 335° Northwest  Level Estimated
Thu 05:20:00 AM 37.4691 126.4505 335° Northwest  Level Estimated
Thu 05:21:00 AM 37.4691 126.4505 335° Northwest  Level Estimated
Thu 05:22:00 AM 37.4691 126.4505 335° Northwest  Level Estimated
Thu 05:23:00 AM 37.4691 126.4505 335° Northwest  Level Estimated
Thu 05:24:00 AM 37.4691 126.4505 335° Northwest  Level Estimated
Thu 05:25:00 AM 37.4691 126.4505 335° Northwest  Level Estimated
Thu 05:26:00 AM 37.4691 126.4505 335° Northwest  Level Estimated
Thu 05:27:00 AM 37.4691 126.4505 335° Northwest  Level Estimated
Thu 05:28:00 AM 37.4691 126.4505 335° Northwest  Level Estimated
Thu 05:29:00 AM 37.4691 126.4505 335° Northwest  Level Estimated
Thu 05:30:00 AM 37.4691 126.4505 335° Northwest  Level Estimated
Thu 05:31:00 AM 37.4691 126.4505 335° Northwest  Level Estimated
Thu 05:32:00 AM 37.4691 126.4505 335° Northwest  Level Estimated
Thu 05:33:00 AM 37.4691 126.4505 335° Northwest  Level Estimated
Thu 05:34:00 AM 37.4691 126.4505 335° Northwest  Level Estimated
Thu 05:35:00 AM 37.4691 126.4505 335° Northwest  Level Estimated
Thu 05:36:00 AM 37.4691 126.4505 335° Northwest  Level Estimated
Thu 05:37:00 AM 37.4691 126.4505 335° Northwest  Level Estimated
Thu 05:38:00 AM 37.4691 126.4505 335° Northwest  Level Estimated
Thu 05:39:00 AM 37.4691 126.4505 335° Northwest  Level Estimated
Thu 05:40:00 AM 37.4691 126.4505 335° Northwest  Level Estimated
Thu 05:41:00 AM 37.4691 126.4505 335° Northwest  Level Estimated
Thu 05:42:00 AM 37.4691 126.4505 335° Northwest  Level Estimated

Login

Don't have an account? Register now (free) for customized features, flight alerts, and more!